createdAt,value
2023-08-20T06:16:47.807Z,16.40
2023-08-20T06:19:49.491Z,16.50
2023-08-20T06:22:51.301Z,16.60
2023-08-20T06:25:53.302Z,16.60
2023-08-20T06:28:54.983Z,16.70
2023-08-20T06:31:56.744Z,16.80
2023-08-20T06:34:58.498Z,16.90
2023-08-20T06:38:00.493Z,17.00
2023-08-20T06:41:02.204Z,17.00
2023-08-20T06:44:04.450Z,17.00
2023-08-20T06:47:06.382Z,17.10
2023-08-20T06:50:08.390Z,17.20
2023-08-20T06:53:10.193Z,17.20
2023-08-20T06:56:14.840Z,17.40
2023-08-20T06:59:17.675Z,17.40
2023-08-20T07:02:19.385Z,17.50
2023-08-20T07:05:21.902Z,17.50
2023-08-20T07:08:23.820Z,17.60
2023-08-20T07:11:25.499Z,17.70
2023-08-20T07:14:27.260Z,17.80
2023-08-20T07:17:28.982Z,17.80
2023-08-20T07:20:31.015Z,18.00
2023-08-20T07:23:32.713Z,18.00
2023-08-20T07:26:34.679Z,18.10
2023-08-20T07:29:36.356Z,18.20
2023-08-20T07:32:38.036Z,18.30
2023-08-20T07:35:40.816Z,18.40
2023-08-20T07:38:44.585Z,18.50
2023-08-20T07:41:46.403Z,18.60
2023-08-20T07:44:48.081Z,18.60
2023-08-20T07:47:49.922Z,18.60
2023-08-20T11:33:06.699Z,24.00
2023-08-20T11:36:08.597Z,24.20
2023-08-20T11:39:10.390Z,24.40
2023-08-20T11:42:12.126Z,24.50
2023-08-20T11:45:13.802Z,24.60
2023-08-20T11:48:16.510Z,24.40
2023-08-20T11:51:18.184Z,24.00
2023-08-20T11:54:19.904Z,23.60
2023-08-20T11:57:21.678Z,23.80
2023-08-20T12:00:30.828Z,23.90
2023-08-20T12:03:33.129Z,23.80
2023-08-20T12:06:35.880Z,23.50
2023-08-20T12:09:37.566Z,23.30
2023-08-20T12:12:39.367Z,23.10
2023-08-20T12:15:41.049Z,23.10
2023-08-20T12:18:42.709Z,23.10
2023-08-20T12:21:44.744Z,23.10
2023-08-20T12:24:46.404Z,23.00
2023-08-20T12:27:48.080Z,23.20
2023-08-20T12:30:49.844Z,23.20
2023-08-20T12:33:51.599Z,23.40
2023-08-20T12:36:53.285Z,23.50
2023-08-20T12:39:55.129Z,23.80
2023-08-20T12:42:56.892Z,23.80
2023-08-20T12:45:58.608Z,23.80
2023-08-20T12:49:00.314Z,23.80
2023-08-20T12:52:02.499Z,23.80
2023-08-20T12:55:07.624Z,23.90
2023-08-20T12:58:09.322Z,23.90
2023-08-20T13:01:11.069Z,23.90
2023-08-20T13:04:13.328Z,23.80
2023-08-20T13:07:15.267Z,23.70
2023-08-20T13:10:17.411Z,23.60
2023-08-20T13:13:19.258Z,23.60
2023-08-20T13:16:21.294Z,23.90
2023-08-20T13:19:23.062Z,24.20
2023-08-20T13:22:24.846Z,24.30
2023-08-20T13:25:26.534Z,24.10
2023-08-20T13:28:28.354Z,24.20
2023-08-20T13:31:30.076Z,24.20
2023-08-20T13:34:32.378Z,24.50
2023-08-20T13:37:34.260Z,25.00
2023-08-20T13:40:36.006Z,25.20
2023-08-20T13:43:37.872Z,25.40
2023-08-20T13:46:39.556Z,25.40
2023-08-20T13:49:41.250Z,25.50
2023-08-20T13:52:43.181Z,25.60
2023-08-20T13:55:44.868Z,25.70
2023-08-20T13:58:46.601Z,25.80
2023-08-20T14:01:48.547Z,26.10
2023-08-20T14:04:50.350Z,26.10
2023-08-20T14:07:52.124Z,25.90
2023-08-20T14:10:53.796Z,25.60
2023-08-20T14:13:55.615Z,25.30
2023-08-20T14:16:57.322Z,25.40
2023-08-20T14:19:59.267Z,25.60
2023-08-20T14:23:01.211Z,26.00
2023-08-20T14:26:04.927Z,26.20
2023-08-20T14:29:06.615Z,26.20
2023-08-20T14:32:08.502Z,26.10
2023-08-20T14:35:10.991Z,26.00
2023-08-20T14:38:12.964Z,26.10
2023-08-20T14:41:14.663Z,26.30
2023-08-20T14:44:16.499Z,26.40
2023-08-20T14:47:18.169Z,26.40
2023-08-20T17:07:49.558Z,25.20
2023-08-20T17:10:51.242Z,25.00
2023-08-20T17:13:53.326Z,24.80
2023-08-20T17:16:55.742Z,24.60
2023-08-20T17:19:57.486Z,24.50
2023-08-20T17:22:59.186Z,24.40
2023-08-20T17:26:01.018Z,24.40
2023-08-20T17:29:03.386Z,24.40
2023-08-20T17:32:05.317Z,24.20
2023-08-20T17:35:09.286Z,24.00
2023-08-20T17:38:11.619Z,23.90
2023-08-20T17:41:13.295Z,23.70
2023-08-20T17:44:15.338Z,24.00
2023-08-20T17:47:17.115Z,24.60
2023-08-20T17:50:21.070Z,24.70
2023-08-20T17:53:26.818Z,24.50
2023-08-20T17:56:28.538Z,24.20
2023-08-20T17:59:30.884Z,24.00
2023-08-20T18:02:32.662Z,23.70
2023-08-20T18:05:34.430Z,23.60
2023-08-20T18:08:36.122Z,23.40
2023-08-20T18:11:37.804Z,23.30
2023-08-20T18:14:39.504Z,23.30
2023-08-20T18:17:41.582Z,23.20
2023-08-20T18:20:43.264Z,23.10
2023-08-20T18:23:44.930Z,22.90
2023-08-20T18:26:46.932Z,22.70
2023-08-20T18:29:48.752Z,22.60
2023-08-20T18:32:50.534Z,22.50
2023-08-20T18:35:58.084Z,22.20
2023-08-20T18:38:59.926Z,22.10
2023-08-20T18:42:01.612Z,21.90
2023-08-20T18:45:04.559Z,21.90
2023-08-20T18:48:06.555Z,21.70
2023-08-20T18:51:08.583Z,21.70
2023-08-20T18:54:10.318Z,21.50
2023-08-20T18:57:13.589Z,21.50
2023-08-20T19:00:15.657Z,21.40
2023-08-20T19:03:17.875Z,21.30
2023-08-20T19:06:20.362Z,21.20
2023-08-20T19:09:22.069Z,21.10
2023-08-20T19:12:23.772Z,21.10
2023-08-20T19:15:25.632Z,20.90
2023-08-20T19:18:27.454Z,20.90
2023-08-20T19:21:29.744Z,20.80
2023-08-20T19:24:31.460Z,20.70
2023-08-20T19:27:33.887Z,20.60
2023-08-20T19:30:35.684Z,20.50
2023-08-20T19:33:37.446Z,20.50
2023-08-20T19:36:40.818Z,20.50
2023-08-20T19:39:43.947Z,20.30
2023-08-20T19:42:46.785Z,20.30
2023-08-20T19:45:49.578Z,20.20
2023-08-20T19:48:51.440Z,20.10
2023-08-20T19:51:53.410Z,20.00
2023-08-20T19:54:55.142Z,20.00
2023-08-20T19:57:59.706Z,19.90
2023-08-20T20:01:05.508Z,19.90
2023-08-20T20:04:07.343Z,19.80
2023-08-20T20:07:21.714Z,19.70
2023-08-20T20:10:24.274Z,19.70
2023-08-20T20:13:26.038Z,19.60
2023-08-20T20:16:27.917Z,19.50
2023-08-20T20:19:29.592Z,19.50
2023-08-20T20:22:31.246Z,19.40
2023-08-20T20:25:33.096Z,19.30
2023-08-20T20:28:36.622Z,19.30
2023-08-20T20:31:38.380Z,19.20
2023-08-20T20:34:40.153Z,19.20
2023-08-20T20:37:42.153Z,19.10
2023-08-20T20:40:46.620Z,19.10
2023-08-20T20:43:48.310Z,19.10
2023-08-20T20:46:50.299Z,19.00
2023-08-20T20:49:52.224Z,19.00
2023-08-20T20:52:53.881Z,18.90
2023-08-20T20:55:57.983Z,18.90
2023-08-20T20:58:59.685Z,18.80
2023-08-20T21:02:01.455Z,18.80
2023-08-20T21:05:03.292Z,18.70
2023-08-20T21:08:05.287Z,18.70
2023-08-20T21:11:06.952Z,18.60
2023-08-20T21:14:08.685Z,18.60
